Time;durP1;ratioP1;P1;durP2;ratioP2;P2;SDS_P1;SDS_P2;PMS_P1;PMS_P2;Temp;Humidity;BMP_temperature;BMP_pressure;BME280_temperature;BME280_humidity;BME280_pressure;Samples;Min_cycle;Max_cycle;Signal;HPM_P1;HPM_P2
2022/02/09 00:04:54;;;;;;;14.07;5.60;;;;;;;8.83;100.00;102343.69;4961252;28;20458;-75
2022/02/09 00:07:28;;;;;;;10.30;5.40;;;;;;;8.75;100.00;102317.69;4960724;28;20521;-75
2022/02/09 00:09:54;;;;;;;11.30;5.30;;;;;;;8.25;100.00;102243.22;4958599;28;21001;-75
2022/02/09 00:12:26;;;;;;;13.20;5.90;;;;;;;8.83;100.00;102328.50;4941846;28;20441;-76
2022/02/09 00:15:40;;;;;;;11.33;6.17;;;;;;;8.74;100.00;102299.97;4960106;28;20269;-74
2022/02/09 00:17:51;;;;;;;10.63;5.60;;;;;;;8.20;100.00;102204.56;4953411;28;20442;-73
2022/02/09 00:20:42;;;;;;;15.90;6.83;;;;;;;8.76;100.00;102331.91;4961519;28;20476;-76
2022/02/09 00:34:41;;;;;;;10.30;5.97;;;;;;;8.69;100.00;102278.16;5018111;28;20584;-85
2022/02/09 00:37:18;;;;;;;8.20;5.50;;;;;;;8.66;100.00;102280.31;5015129;28;20973;-84
2022/02/09 00:59:58;;;;;;;7.87;5.67;;;;;;;8.66;100.00;102307.91;4998291;28;20439;-85
2022/02/09 01:38:05;;;;;;;8.93;5.77;;;;;;;8.98;100.00;102327.97;5001448;28;20943;-85
2022/02/09 01:57:16;;;;;;;8.63;5.67;;;;;;;9.07;100.00;102332.41;4998337;28;20856;-84
2022/02/09 01:59:49;;;;;;;10.00;4.97;;;;;;;8.65;100.00;102298.22;4991911;28;20459;-84
2022/02/09 02:02:15;;;;;;;8.60;5.37;;;;;;;8.83;100.00;102309.75;4976889;28;20621;-84
2022/02/09 02:04:41;;;;;;;10.70;5.00;;;;;;;8.94;100.00;102315.88;4995873;28;21184;-85
2022/02/09 02:07:19;;;;;;;12.97;5.30;;;;;;;8.98;100.00;102326.13;4998693;28;20215;-86
2022/02/09 02:09:45;;;;;;;6.57;5.23;;;;;;;8.37;100.00;102206.44;4983736;28;20467;-85
2022/02/09 02:12:16;;;;;;;11.70;5.37;;;;;;;8.96;100.00;102314.72;4996189;28;20469;-86
2022/02/09 02:14:47;;;;;;;10.00;4.60;;;;;;;8.63;100.00;102253.88;4996091;28;20439;-85
2022/02/09 02:17:25;;;;;;;9.00;5.70;;;;;;;9.02;100.00;102300.72;4979282;28;20827;-87
2022/02/09 02:20:01;;;;;;;7.67;4.80;;;;;;;7.86;100.00;102115.16;4998432;28;20471;-84
2022/02/09 02:23:00;;;;;;;12.63;5.87;;;;;;;7.89;100.00;102151.44;4996725;28;20509;-87
2022/02/09 02:28:37;;;;;;;11.07;5.10;;;;;;;8.65;100.00;102228.66;4997588;28;21182;-85
2022/02/09 02:34:43;;;;;;;7.23;4.53;;;;;;;8.33;100.00;102168.47;4998871;28;20505;-83
2022/02/09 02:47:22;;;;;;;7.80;4.13;;;;;;;8.76;100.00;102220.38;5001149;28;20426;-85
2022/02/09 03:17:13;;;;;;;11.33;4.70;;;;;;;8.80;100.00;102196.84;4998136;28;20471;-83
2022/02/09 03:19:49;;;;;;;12.80;3.90;;;;;;;8.55;100.00;102150.31;5000463;28;20470;-85
2022/02/09 03:22:26;;;;;;;10.43;3.63;;;;;;;9.10;100.00;102230.38;5001379;28;20951;-86
2022/02/09 03:44:31;;;;;;;10.63;3.17;;;;;;;8.47;100.00;102137.69;4997160;28;22313;-83
2022/02/09 03:47:19;;;;;;;5.73;3.37;;;;;;;8.94;100.00;102222.19;4998789;28;20432;-86
2022/02/09 03:55:20;;;;;;;7.27;3.33;;;;;;;9.05;100.00;102227.31;4995734;28;20459;-85
2022/02/09 03:57:46;;;;;;;9.53;2.80;;;;;;;8.63;100.00;102158.41;5000427;28;20485;-86
2022/02/09 04:00:13;;;;;;;8.03;3.10;;;;;;;8.94;100.00;102207.00;5002251;28;20456;-86
2022/02/09 04:02:39;;;;;;;8.10;2.53;;;;;;;9.02;100.00;102215.09;4975172;28;20814;-85
2022/02/09 04:05:06;;;;;;;12.17;2.80;;;;;;;8.84;100.00;102158.09;4981174;28;20440;-84
2022/02/09 04:07:34;;;;;;;5.20;2.70;;;;;;;8.76;100.00;102145.47;4976831;28;20663;-82
2022/02/09 04:10:05;;;;;;;8.77;3.40;;;;;;;9.08;100.00;102204.75;4976111;28;20517;-86
2022/02/09 04:15:23;;;;;;;6.37;2.70;;;;;;;8.28;100.00;102093.22;4998645;28;20920;-85
2022/02/09 04:37:41;;;;;;;16.57;3.37;;;;;;;8.71;100.00;102130.91;4996766;28;20959;-81
2022/02/09 04:40:12;;;;;;;8.83;2.97;;;;;;;8.71;100.00;102155.81;4978344;28;20570;-83
2022/02/09 04:50:29;;;;;;;12.13;3.30;;;;;;;8.69;100.00;102156.97;4999190;28;20504;-87
2022/02/09 04:53:22;;;;;;;5.77;3.17;;;;;;;8.53;100.00;102147.81;4994208;28;20494;-84
2022/02/09 04:55:56;;;;;;;8.80;3.43;;;;;;;8.81;100.00;102183.31;4992537;28;20436;-83
2022/02/09 04:58:41;;;;;;;10.80;3.03;;;;;;;8.25;100.00;102088.19;5000684;28;21246;-85
2022/02/09 05:25:41;;;;;;;8.80;3.50;;;;;;;8.59;100.00;102165.06;5000159;28;20446;-86
2022/02/09 05:30:35;;;;;;;15.93;4.50;;;;;;;8.06;100.00;102045.56;4998176;28;22191;-81
2022/02/09 05:33:01;;;;;;;9.67;3.97;;;;;;;7.97;100.00;102049.16;4997220;28;20936;-82
2022/02/09 05:35:27;;;;;;;11.30;3.10;;;;;;;8.67;100.00;102165.13;4999607;28;20192;-82
2022/02/09 05:37:55;;;;;;;9.27;3.47;;;;;;;8.41;100.00;102124.94;4975562;28;20529;-82
2022/02/09 05:40:24;;;;;;;10.67;3.10;;;;;;;8.03;100.00;102062.75;4978985;28;20194;-81
2022/02/09 05:42:52;;;;;;;7.03;3.40;;;;;;;8.54;100.00;102138.78;4997986;28;20436;-85
2022/02/09 05:45:21;;;;;;;13.00;3.60;;;;;;;8.12;100.00;102071.69;4992647;28;20447;-84
2022/02/09 05:48:42;;;;;;;7.73;3.50;;;;;;;8.00;100.00;102064.88;4993766;28;20510;-82
2022/02/09 05:53:21;;;;;;;7.33;3.00;;;;;;;8.15;100.00;102047.31;4986472;28;20558;-83
2022/02/09 05:56:05;;;;;;;9.67;3.37;;;;;;;8.22;100.00;102088.50;4974881;28;20259;-79
2022/02/09 06:01:00;;;;;;;8.80;3.17;;;;;;;8.70;100.00;102155.97;5003397;28;20524;-82
2022/02/09 06:03:26;;;;;;;9.63;3.60;;;;;;;8.70;100.00;102153.28;4984850;28;20723;-80
2022/02/09 06:05:52;;;;;;;9.70;3.50;;;;;;;8.59;100.00;102127.59;4996306;28;20625;-83
2022/02/09 06:08:17;;;;;;;11.90;4.70;;;;;;;8.78;100.00;102166.72;4998631;28;20821;-79
2022/02/09 06:10:52;;;;;;;6.63;3.57;;;;;;;8.69;100.00;102152.44;4999441;28;20753;-83
2022/02/09 06:13:42;;;;;;;11.53;4.17;;;;;;;8.13;100.00;102076.06;4998508;28;20187;-81
2022/02/09 06:21:35;;;;;;;10.70;4.20;;;;;;;8.02;100.00;102044.22;5008868;28;20545;-82
2022/02/09 06:24:04;;;;;;;7.00;3.70;;;;;;;8.55;100.00;102144.97;4990493;28;20443;-79
2022/02/09 06:26:30;;;;;;;9.97;4.10;;;;;;;8.19;100.00;102079.91;5000968;28;20192;-81
2022/02/09 06:28:55;;;;;;;7.70;3.83;;;;;;;7.74;100.00;102019.38;5004610;28;20470;-80
2022/02/09 06:31:21;;;;;;;11.07;3.93;;;;;;;8.36;100.00;102087.09;5003523;22;20222;-82
2022/02/09 06:33:47;;;;;;;7.90;3.37;;;;;;;8.41;100.00;102130.28;4962441;28;20663;-81
2022/02/09 06:36:14;;;;;;;14.57;4.83;;;;;;;8.54;100.00;102144.13;4967422;28;20210;-79
2022/02/09 06:38:40;;;;;;;10.07;3.70;;;;;;;8.08;100.00;102055.13;4965651;28;20463;-77
2022/02/09 06:41:09;;;;;;;6.20;3.67;;;;;;;7.18;100.00;101895.84;4983268;28;20523;-78
2022/02/09 06:43:35;;;;;;;8.07;4.10;;;;;;;7.99;100.00;102048.03;4979457;28;20948;-77
2022/02/09 06:46:02;;;;;;;8.60;4.13;;;;;;;8.74;100.00;102152.00;4974009;28;21066;-80
2022/02/09 06:48:29;;;;;;;9.57;4.63;;;;;;;8.29;100.00;102105.59;4979121;28;20491;-80
2022/02/09 06:50:58;;;;;;;8.33;3.57;;;;;;;8.57;100.00;102137.63;4977193;28;20487;-78
2022/02/09 06:55:56;;;;;;;11.57;4.43;;;;;;;7.91;100.00;102014.03;4981112;28;20798;-77
2022/02/09 07:01:06;;;;;;;6.40;3.90;;;;;;;8.36;100.00;102106.69;4977374;28;20475;-77
2022/02/09 07:03:31;;;;;;;11.47;5.03;;;;;;;8.40;100.00;102119.78;4981734;28;20448;-78
2022/02/09 07:05:57;;;;;;;9.37;4.23;;;;;;;8.64;100.00;102141.38;4978286;28;20441;-78
2022/02/09 07:08:22;;;;;;;13.77;5.83;;;;;;;7.83;100.00;102011.28;4980415;28;20192;-79
2022/02/09 07:10:48;;;;;;;8.07;4.00;;;;;;;7.78;100.00;102004.72;4958128;28;20667;-78
2022/02/09 07:13:14;;;;;;;9.13;4.03;;;;;;;7.94;100.00;102031.59;4976407;28;20815;-76
2022/02/09 07:15:47;;;;;;;11.00;4.30;;;;;;;8.69;100.00;102157.78;4962575;28;20611;-78
2022/02/09 07:18:14;;;;;;;10.30;4.33;;;;;;;7.92;100.00;102038.91;4976578;28;20194;-80
2022/02/09 07:23:38;;;;;;;11.93;4.47;;;;;;;8.40;100.00;102123.28;4978245;28;20470;-79
2022/02/09 07:28:29;;;;;;;7.93;3.23;;;;;;;8.60;100.00;102156.06;4969870;28;20454;-80
2022/02/09 07:30:54;;;;;;;7.60;3.10;;;;;;;8.62;100.00;102156.75;4971907;28;20213;-79
2022/02/09 07:33:20;;;;;;;9.73;3.50;;;;;;;8.71;100.00;102161.16;4970921;28;20197;-81
2022/02/09 07:35:45;;;;;;;6.67;3.03;;;;;;;8.68;100.00;102158.81;4976004;28;20713;-80
2022/02/09 07:38:11;;;;;;;8.20;3.17;;;;;;;8.34;100.00;102116.69;4968511;28;20194;-80
2022/02/09 07:40:38;;;;;;;7.90;3.53;;;;;;;7.82;100.00;102024.81;4972687;28;20544;-80
2022/02/09 07:43:11;;;;;;;8.60;3.23;;;;;;;8.58;100.00;102150.00;4969304;28;20236;-81
2022/02/09 07:48:27;;;;;;;9.00;2.63;;;;;;;8.15;100.00;102072.22;4961827;28;20540;-85
2022/02/09 07:53:48;;;;;;;8.30;2.90;;;;;;;8.63;100.00;102142.38;4973478;28;20435;-81
2022/02/09 07:56:14;;;;;;;15.50;2.77;;;;;;;8.62;100.00;102163.91;4981982;28;20417;-86
2022/02/09 07:58:39;;;;;;;12.13;2.33;;;;;;;7.97;100.00;102054.50;4958995;28;20968;-88
2022/02/09 08:01:05;;;;;;;8.90;2.63;;;;;;;8.63;100.00;102145.03;4967530;28;20708;-82
2022/02/09 08:03:30;;;;;;;9.10;2.70;;;;;;;7.97;100.00;102017.09;4976934;28;20198;-82
2022/02/09 08:05:55;;;;;;;11.60;2.90;;;;;;;7.76;100.00;102007.56;4964586;28;20609;-84
2022/02/09 08:08:22;;;;;;;10.53;2.80;;;;;;;7.93;100.00;102020.09;4966346;28;20193;-82
2022/02/09 08:10:54;;;;;;;8.10;2.97;;;;;;;8.06;100.00;102040.22;4982300;28;21046;-81
2022/02/09 08:23:10;;;;;;;10.87;3.37;;;;;;;8.33;100.00;102069.56;4970026;28;20484;-81
2022/02/09 08:25:18;;;;;;;;;;;;;;;;;;;;;
2022/02/09 08:34:54;;;;;;;9.07;2.50;;;;;;;8.64;100.00;102146.72;4976482;28;20440;-87
2022/02/09 08:37:20;;;;;;;9.07;3.00;;;;;;;8.77;100.00;102157.03;4963000;28;20558;-86
2022/02/09 08:39:47;;;;;;;11.67;2.13;;;;;;;8.48;100.00;102120.69;4962586;28;20535;-88
2022/02/09 08:42:13;;;;;;;7.73;2.80;;;;;;;8.77;100.00;102163.22;4962923;28;20198;-88
2022/02/09 08:44:38;;;;;;;10.00;2.83;;;;;;;8.68;100.00;102166.81;4964434;28;20813;-89
2022/02/09 08:47:04;;;;;;;11.27;2.83;;;;;;;8.66;100.00;102173.31;4961053;28;20236;-89
2022/02/09 08:49:30;;;;;;;16.40;2.83;;;;;;;7.77;100.00;102030.59;4963205;28;20186;-80
2022/02/09 08:51:56;;;;;;;8.27;2.30;;;;;;;8.62;100.00;102163.91;4979048;28;20208;-86
2022/02/09 08:54:22;;;;;;;6.90;2.70;;;;;;;7.81;100.00;102021.31;4963789;28;20199;-84
2022/02/09 08:56:47;;;;;;;12.27;2.90;;;;;;;8.48;100.00;102134.06;4964614;28;20804;-85
2022/02/09 08:59:13;;;;;;;10.33;3.50;;;;;;;8.52;100.00;102151.47;4975584;28;20206;-89
2022/02/09 09:01:43;;;;;;;9.30;2.83;;;;;;;7.97;100.00;102047.34;4956575;28;20324;-85
2022/02/09 09:04:20;;;;;;;9.50;2.80;;;;;;;8.55;100.00;102175.22;4964445;28;20461;-87
2022/02/09 09:06:52;;;;;;;8.23;2.77;;;;;;;7.73;100.00;102061.28;4970266;28;20429;-82
2022/02/09 09:09:44;;;;;;;8.43;2.70;;;;;;;8.26;100.00;102115.75;4973503;28;20434;-85
2022/02/09 10:35:30;;;;;;;5.27;2.07;;;;;;;8.51;100.00;102189.06;4969744;28;20543;-87
2022/02/09 10:37:59;;;;;;;4.03;1.83;;;;;;;7.98;100.00;102085.56;4955851;28;20469;-82
2022/02/09 10:40:32;;;;;;;7.80;2.00;;;;;;;8.58;100.00;102192.78;4957009;28;20848;-84
2022/02/09 10:43:01;;;;;;;9.50;2.33;;;;;;;7.90;100.00;102073.00;4975502;28;20437;-87
2022/02/09 10:45:44;;;;;;;7.00;2.03;;;;;;;8.46;100.00;102168.13;4976050;28;20470;-85
2022/02/09 10:48:35;;;;;;;7.87;2.40;;;;;;;8.53;100.00;102169.22;4958683;28;20468;-86
2022/02/09 10:51:16;;;;;;;11.37;3.20;;;;;;;8.69;100.00;102191.75;4962797;28;20476;-83
2022/02/09 10:54:04;;;;;;;7.70;2.30;;;;;;;8.17;100.00;102090.78;4959840;28;20475;-83
2022/02/09 10:56:33;;;;;;;8.60;3.10;;;;;;;8.17;100.00;102084.59;4958420;28;20437;-83
2022/02/09 10:59:00;;;;;;;10.00;2.90;;;;;;;8.18;100.00;102079.09;4953632;28;21092;-82
2022/02/09 11:01:26;;;;;;;8.73;2.40;;;;;;;8.25;100.00;102093.53;4959988;28;21182;-81
2022/02/09 11:03:56;;;;;;;9.70;3.10;;;;;;;8.75;100.00;102175.91;4976777;28;20429;-81
2022/02/09 11:06:26;;;;;;;8.13;2.53;;;;;;;8.73;100.00;102193.94;4976976;28;20517;-83
2022/02/09 11:08:52;;;;;;;7.47;2.30;;;;;;;7.88;100.00;102033.06;4965727;28;20505;-83
2022/02/09 11:11:18;;;;;;;9.73;3.03;;;;;;;8.53;100.00;102146.94;4961077;28;20457;-86
2022/02/09 11:13:43;;;;;;;13.20;2.60;;;;;;;8.26;100.00;102116.59;4965391;28;20280;-83
2022/02/09 11:16:12;;;;;;;7.93;2.67;;;;;;;8.83;100.00;102180.50;4980350;28;20257;-84
2022/02/09 11:18:38;;;;;;;10.73;3.23;;;;;;;8.49;100.00;102121.53;4962901;28;20182;-83
2022/02/09 11:21:08;;;;;;;5.50;2.20;;;;;;;8.35;100.00;102080.91;4962355;28;20472;-85
2022/02/09 11:23:49;;;;;;;10.07;2.77;;;;;;;8.96;100.00;102180.09;4974343;28;20465;-85
2022/02/09 11:26:27;;;;;;;10.63;2.73;;;;;;;8.95;100.00;102173.91;4972926;28;20428;-85
2022/02/09 11:34:56;;;;;;;9.40;1.80;;;;;;;9.02;100.00;102168.75;4977807;28;20495;-84
2022/02/09 11:37:38;;;;;;;9.00;2.00;;;;;;;8.97;100.00;102171.09;4975529;28;20783;-83
2022/02/09 11:40:44;;;;;;;10.70;2.67;;;;;;;8.96;100.00;102174.72;4963538;28;21200;-84
2022/02/09 11:43:22;;;;;;;8.07;2.33;;;;;;;8.96;100.00;102180.09;4960381;28;20445;-84
2022/02/09 11:46:07;;;;;;;5.23;2.20;;;;;;;8.97;100.00;102179.94;4961356;28;20440;-87
2022/02/09 11:52:00;;;;;;;9.40;2.60;;;;;;;8.93;100.00;102191.09;4979590;28;20464;-88
2022/02/09 12:10:51;;;;;;;11.67;3.10;;;;;;;8.90;100.00;102172.69;4981059;28;20463;-86
2022/02/09 12:16:35;;;;;;;10.77;2.13;;;;;;;8.73;100.00;102171.69;4977400;28;20432;-80
2022/02/09 12:19:07;;;;;;;11.70;2.90;;;;;;;8.76;100.00;102166.88;4960385;28;20535;-83
2022/02/09 12:21:59;;;;;;;11.30;2.90;;;;;;;8.75;100.00;102183.09;4965987;28;20994;-84
2022/02/09 12:24:32;;;;;;;7.90;2.33;;;;;;;8.78;100.00;102174.75;4981071;28;20453;-79
2022/02/09 12:27:08;;;;;;;9.40;2.30;;;;;;;8.74;100.00;102176.91;4961822;28;20479;-83
2022/02/09 12:29:40;;;;;;;13.10;2.90;;;;;;;8.71;100.00;102171.03;4966150;28;20469;-85
2022/02/09 12:32:14;;;;;;;8.50;1.90;;;;;;;8.74;100.00;102166.22;4979825;22;20492;-71
2022/02/09 12:34:51;;;;;;;6.07;2.53;;;;;;;8.55;100.00;102148.47;5000446;28;20471;-71
2022/02/09 12:37:17;;;;;;;8.23;2.17;;;;;;;8.52;100.00;102146.09;4997881;28;20443;-71
2022/02/09 12:40:03;;;;;;;7.30;3.17;;;;;;;8.74;100.00;102168.88;4999699;28;20471;-70
2022/02/09 12:42:33;;;;;;;8.10;2.70;;;;;;;8.70;100.00;102170.16;4994604;28;20219;-68
2022/02/09 12:45:00;;;;;;;7.40;2.40;;;;;;;8.70;100.00;102185.38;4994734;28;20443;-68
2022/02/09 12:47:53;;;;;;;14.43;2.20;;;;;;;8.66;100.00;102181.34;4997843;28;20441;-68
2022/02/09 12:50:20;;;;;;;6.70;2.60;;;;;;;8.56;100.00;102168.91;4994370;28;20945;-68
2022/02/09 12:52:46;;;;;;;9.73;2.00;;;;;;;8.68;100.00;102179.34;4993961;28;20837;-68
2022/02/09 12:55:18;;;;;;;14.63;3.00;;;;;;;8.72;100.00;102183.41;4990153;28;20447;-69
2022/02/09 12:57:51;;;;;;;7.23;2.30;;;;;;;8.71;100.00;102185.25;4996109;28;20491;-69
2022/02/09 13:00:40;;;;;;;11.90;2.93;;;;;;;8.69;100.00;102183.72;4994153;28;20486;-68
2022/02/09 13:03:21;;;;;;;6.47;2.00;;;;;;;8.63;100.00;102184.31;4997299;28;20542;-68
2022/02/09 13:05:50;;;;;;;6.43;2.10;;;;;;;8.64;100.00;102186.00;4999047;28;20424;-68
2022/02/09 13:08:20;;;;;;;8.17;1.60;;;;;;;7.94;100.00;102079.69;4996847;28;20526;-68
2022/02/09 13:10:46;;;;;;;6.20;1.90;;;;;;;8.53;100.00;102168.34;4994744;28;20432;-68
2022/02/09 13:13:21;;;;;;;3.83;1.70;;;;;;;8.66;100.00;102182.19;4996075;28;20444;-68
2022/02/09 13:24:28;;;;;;;5.77;2.07;;;;;;;8.37;100.00;102161.81;4985765;28;20463;-68
2022/02/09 14:53:44;;;;;;;9.17;4.03;;;;;;;8.64;100.00;102221.59;4998184;28;20490;-68
2022/02/09 14:56:21;;;;;;;9.43;3.70;;;;;;;8.66;100.00;102227.66;4991196;28;20432;-66
2022/02/09 14:58:54;;;;;;;11.83;3.70;;;;;;;8.69;100.00;102232.69;4993174;28;20428;-67
2022/02/09 15:01:30;;;;;;;12.80;4.30;;;;;;;8.72;100.00;102235.06;4991746;28;20471;-67
2022/02/09 15:07:25;;;;;;;12.10;4.20;;;;;;;8.74;100.00;102233.09;4995916;28;20493;-67
2022/02/09 15:09:36;;;;;;;13.33;4.00;;;;;;;8.74;100.00;102233.09;4993752;28;20448;-67
2022/02/09 15:12:29;;;;;;;7.80;3.77;;;;;;;8.72;100.00;102239.56;4996790;28;20467;-67
2022/02/09 15:20:09;;;;;;;11.40;3.63;;;;;;;8.50;100.00;102198.06;4997886;28;20598;-67
2022/02/09 15:22:30;;;;;;;9.63;3.93;;;;;;;8.66;100.00;102237.53;4997315;28;20328;-67
2022/02/09 15:24:55;;;;;;;13.07;4.87;;;;;;;8.66;100.00;102246.38;4996213;28;20494;-67
2022/02/09 15:27:21;;;;;;;12.27;4.57;;;;;;;8.70;100.00;102238.88;4996027;28;20863;-66
2022/02/09 15:29:48;;;;;;;8.33;3.80;;;;;;;8.63;100.00;102246.69;4991940;28;20308;-67
2022/02/09 15:32:22;;;;;;;6.93;3.10;;;;;;;8.70;100.00;102239.72;5000212;28;20491;-67
2022/02/09 15:34:58;;;;;;;7.17;3.47;;;;;;;8.64;100.00;102243.00;4997633;28;20794;-66
2022/02/09 15:37:45;;;;;;;6.57;3.17;;;;;;;8.66;100.00;102248.22;4990584;28;20535;-67
2022/02/09 15:40:15;;;;;;;14.60;3.00;;;;;;;8.43;100.00;102221.06;4985740;28;21055;-67
2022/02/09 16:09:27;;;;;;;7.57;2.10;;;;;;;8.52;100.00;102257.59;4992766;28;20828;-67
2022/02/09 16:33:20;;;;;;;6.87;1.87;;;;;;;8.49;100.00;102269.44;4991905;28;20535;-67
2022/02/09 16:36:38;;;;;;;9.90;2.00;;;;;;;8.38;100.00;102246.41;4986401;28;20456;-67
2022/02/09 16:38:58;;;;;;;6.87;2.20;;;;;;;8.34;100.00;102253.03;4990189;28;20455;-67
2022/02/09 16:44:37;;;;;;;10.90;2.13;;;;;;;8.46;100.00;102264.38;4990823;28;20431;-67
2022/02/09 16:47:04;;;;;;;10.80;2.07;;;;;;;8.31;100.00;102245.31;4988007;28;20528;-67
2022/02/09 16:50:16;;;;;;;8.93;1.83;;;;;;;8.41;100.00;102276.50;4988696;28;20455;-67
2022/02/09 17:19:35;;;;;;;7.70;2.43;;;;;;;8.33;100.00;102291.44;4979222;28;20438;-67
2022/02/09 17:22:00;;;;;;;9.30;2.27;;;;;;;8.09;100.00;102267.06;4984629;28;21018;-67
2022/02/09 17:24:26;;;;;;;11.70;2.10;;;;;;;8.21;100.00;102292.63;4981961;28;20245;-67
2022/02/09 17:26:54;;;;;;;8.90;2.00;;;;;;;8.03;100.00;102259.66;4984588;28;20248;-67
2022/02/09 17:29:26;;;;;;;7.20;2.33;;;;;;;8.23;100.00;102287.97;4976422;28;20463;-67
2022/02/09 17:34:47;;;;;;;15.10;1.97;;;;;;;8.16;100.00;102289.56;4979793;28;21218;-69
2022/02/09 17:38:16;;;;;;;9.07;3.00;;;;;;;8.09;100.00;102275.09;4990797;28;20940;-67
2022/02/09 17:53:46;;;;;;;11.30;2.40;;;;;;;8.01;100.00;102286.50;4979078;28;20486;-68
2022/02/09 17:56:19;;;;;;;8.40;2.03;;;;;;;8.05;100.00;102282.56;4981117;28;20571;-67
2022/02/09 17:58:49;;;;;;;7.03;2.10;;;;;;;8.11;100.00;102281.13;4972793;28;21454;-68
2022/02/09 18:01:21;;;;;;;7.57;2.07;;;;;;;8.00;100.00;102278.66;4981708;28;20463;-68
2022/02/09 18:03:48;;;;;;;6.53;2.10;;;;;;;7.99;100.00;102282.31;4981734;28;20441;-68
2022/02/09 18:06:25;;;;;;;10.07;2.10;;;;;;;7.87;100.00;102254.94;4980034;28;20444;-68
2022/02/09 18:08:58;;;;;;;10.67;2.23;;;;;;;7.90;100.00;102276.88;4977583;28;20428;-67
2022/02/09 18:30:07;;;;;;;9.47;2.53;;;;;;;7.72;100.00;102256.38;4981436;28;20863;-68
2022/02/09 18:33:07;;;;;;;7.87;2.40;;;;;;;6.40;100.00;102061.47;4985661;23;20455;-76
2022/02/09 18:58:26;;;;;;;9.90;3.27;;;;;;;7.72;100.00;102221.66;4968865;28;20503;-84
2022/02/09 19:05:53;;;;;;;10.37;2.70;;;;;;;7.58;100.00;102222.97;4965790;28;20441;-77
2022/02/09 19:08:36;;;;;;;9.37;2.73;;;;;;;8.02;100.00;102260.66;4963038;28;20524;-78
2022/02/09 19:48:24;;;;;;;15.27;3.90;;;;;;;7.34;100.00;102202.94;4972131;28;20444;-83
2022/02/09 19:56:05;;;;;;;6.87;3.20;;;;;;;7.75;100.00;102238.22;4971433;28;20363;-84
2022/02/09 19:58:41;;;;;;;9.23;3.40;;;;;;;7.70;100.00;102230.69;4961201;28;20464;-84
2022/02/09 20:01:13;;;;;;;8.30;3.10;;;;;;;7.61;100.00;102228.88;4973391;28;21174;-82
2022/02/09 20:03:42;;;;;;;12.40;3.20;;;;;;;7.58;100.00;102237.19;4971317;28;20515;-83
2022/02/09 20:06:09;;;;;;;10.40;4.10;;;;;;;7.25;100.00;102198.47;4952552;28;20536;-80
2022/02/09 20:08:41;;;;;;;8.87;3.20;;;;;;;7.27;100.00;102233.03;4965550;28;20452;-76
2022/02/09 20:11:09;;;;;;;8.87;3.30;;;;;;;7.57;100.00;102245.31;4969055;28;20430;-78
2022/02/09 20:13:36;;;;;;;9.17;2.90;;;;;;;6.88;100.00;102135.19;4963509;28;20464;-82
2022/02/09 20:16:03;;;;;;;5.83;3.00;;;;;;;7.45;100.00;102209.94;4960706;28;20440;-83
2022/02/09 20:18:32;;;;;;;9.40;2.80;;;;;;;7.70;100.00;102262.72;4962060;28;20440;-83
2022/02/09 20:21:06;;;;;;;9.93;3.07;;;;;;;7.17;100.00;102144.97;4973776;28;20555;-85
2022/02/09 20:23:33;;;;;;;10.17;3.20;;;;;;;7.81;100.00;102272.41;4969117;28;20523;-86
2022/02/09 20:26:03;;;;;;;8.03;2.90;;;;;;;7.85;100.00;102276.44;4984561;28;20456;-86
2022/02/09 20:28:32;;;;;;;8.90;3.37;;;;;;;7.79;100.00;102269.03;4964765;28;20808;-84
2022/02/09 20:31:03;;;;;;;8.97;3.10;;;;;;;7.62;100.00;102272.44;4961861;28;20940;-83
2022/02/09 20:33:43;;;;;;;6.53;3.10;;;;;;;7.58;100.00;102273.69;4957179;28;20485;-85
2022/02/09 20:36:15;;;;;;;7.10;3.00;;;;;;;6.88;100.00;102153.88;4954007;28;20436;-85
2022/02/09 20:38:52;;;;;;;7.00;3.90;;;;;;;7.42;100.00;102207.56;4967603;28;20444;-85
2022/02/09 20:41:19;;;;;;;8.30;2.90;;;;;;;7.63;100.00;102248.25;4975039;28;20531;-85
2022/02/09 20:46:28;;;;;;;9.13;3.77;;;;;;;7.68;100.00;102253.16;4967739;28;20425;-84
2022/02/09 20:48:56;;;;;;;12.70;3.87;;;;;;;6.92;100.00;102133.94;4966913;28;20441;-84
2022/02/09 20:51:22;;;;;;;8.57;3.80;;;;;;;7.29;100.00;102199.88;4962201;28;20437;-86
2022/02/09 20:53:53;;;;;;;12.60;4.23;;;;;;;7.64;100.00;102247.28;4965162;28;20471;-85
2022/02/09 20:56:19;;;;;;;17.00;5.03;;;;;;;7.64;100.00;102254.47;4963921;28;20252;-82
2022/02/09 20:58:46;;;;;;;13.13;5.67;;;;;;;7.29;100.00;102193.69;4961021;28;20444;-84
2022/02/09 21:04:36;;;;;;;12.13;4.87;;;;;;;7.50;100.00;102233.56;4971296;28;20527;-86
2022/02/09 21:07:20;;;;;;;8.20;4.57;;;;;;;7.51;100.00;102233.38;4956860;28;21311;-82
2022/02/09 21:10:06;;;;;;;12.03;5.10;;;;;;;7.06;100.00;102155.81;4970851;28;20485;-86
2022/02/09 21:12:51;;;;;;;10.77;5.33;;;;;;;7.43;100.00;102190.56;4972366;28;20456;-85
2022/02/09 21:15:49;;;;;;;15.23;6.07;;;;;;;7.82;100.00;102241.19;4972529;28;20494;-85
2022/02/09 21:21:16;;;;;;;13.97;6.00;;;;;;;7.77;100.00;102227.41;4976137;28;21119;-86
2022/02/09 21:26:36;;;;;;;10.53;6.50;;;;;;;7.73;100.00;102231.38;4972179;28;20500;-84
2022/02/09 21:30:28;;;;;;;9.50;6.07;;;;;;;7.33;100.00;102150.56;4968680;28;20440;-85
2022/02/09 21:56:18;;;;;;;11.57;7.10;;;;;;;7.72;100.00;102219.81;4962750;28;20436;-85
2022/02/09 21:59:42;;;;;;;19.53;8.50;;;;;;;6.87;100.00;102077.50;4964582;28;20429;-85
2022/02/09 22:21:54;;;;;;;10.53;5.70;;;;;;;7.08;100.00;102111.16;4965874;28;21026;-85
2022/02/09 22:27:10;;;;;;;12.60;5.20;;;;;;;7.76;100.00;102185.69;4965439;28;20540;-86
2022/02/09 22:30:03;;;;;;;10.03;5.70;;;;;;;7.59;100.00;102158.75;4966223;28;20437;-85
2022/02/09 22:54:26;;;;;;;11.20;6.30;;;;;;;7.72;100.00;102161.06;4968157;28;20193;-86
2022/02/09 22:56:43;;;;;;;12.47;7.13;;;;;;;7.41;100.00;102118.63;4961914;28;21012;-85
2022/02/09 22:59:23;;;;;;;11.83;6.50;;;;;;;7.01;100.00;102037.03;4972813;28;20444;-84
2022/02/09 23:01:53;;;;;;;14.13;7.60;;;;;;;7.65;100.00;102114.59;4989133;28;20209;-85
2022/02/09 23:18:11;;;;;;;13.37;8.47;;;;;;;6.92;100.00;102051.25;4975449;28;20948;-84
2022/02/09 23:56:02;;;;;;;14.47;8.90;;;;;;;7.32;100.00;102108.84;4973599;28;20528;-82
